Time;durP1;ratioP1;P1;durP2;ratioP2;P2;SDS_P1;SDS_P2;PMS_P1;PMS_P2;Temp;Humidity;BMP_temperature;BMP_pressure;BME280_temperature;BME280_humidity;BME280_pressure;Samples;Min_cycle;Max_cycle;Signal;HPM_P1;HPM_P2
2021/12/15 00:01:39;;;;;;;49.88;32.63;;;;;;;8.56;95.68;102746.22;5030061;28;20030;-71
2021/12/15 00:04:05;;;;;;;48.10;31.45;;;;;;;8.55;95.03;102751.78;5031949;28;20358;-71
2021/12/15 00:06:31;;;;;;;47.10;31.30;;;;;;;8.54;95.90;102747.38;5030345;28;20083;-71
2021/12/15 00:08:58;;;;;;;48.38;32.03;;;;;;;8.52;95.86;102752.94;5031858;28;20104;-71
2021/12/15 00:11:35;;;;;;;50.90;32.13;;;;;;;8.55;95.66;102749.09;5032038;28;20112;-71
2021/12/15 00:14:03;;;;;;;48.72;32.17;;;;;;;8.54;94.98;102742.00;5032074;28;20040;-71
2021/12/15 00:16:28;;;;;;;48.38;32.08;;;;;;;8.55;95.62;102741.00;5034707;28;20038;-71
2021/12/15 00:18:54;;;;;;;47.67;31.30;;;;;;;8.55;95.62;102736.44;5035968;28;20076;-71
2021/12/15 00:21:20;;;;;;;49.85;32.15;;;;;;;8.56;95.52;102732.72;5034526;28;20384;-71
2021/12/15 00:23:47;;;;;;;48.42;31.05;;;;;;;8.57;95.79;102737.09;5036352;28;20411;-71
2021/12/15 00:26:13;;;;;;;50.28;31.02;;;;;;;8.56;95.28;102735.44;5035425;28;20037;-71
2021/12/15 00:28:39;;;;;;;47.38;31.58;;;;;;;8.56;95.07;102735.44;5035675;28;20481;-70
2021/12/15 00:31:05;;;;;;;48.03;31.05;;;;;;;8.57;95.25;102736.25;5035083;28;20041;-71
2021/12/15 00:33:32;;;;;;;48.58;31.25;;;;;;;8.54;95.37;102726.63;5035914;28;20029;-71
2021/12/15 00:35:57;;;;;;;49.67;31.70;;;;;;;8.57;95.81;102737.09;5035645;28;20029;-71
2021/12/15 00:38:23;;;;;;;46.63;31.60;;;;;;;8.57;95.58;102734.41;5035738;28;20104;-71
2021/12/15 00:40:48;;;;;;;52.28;31.33;;;;;;;8.57;95.66;102731.69;5035764;28;20069;-71
2021/12/15 00:43:14;;;;;;;48.83;30.58;;;;;;;8.59;95.74;102734.22;5035531;28;20029;-71
2021/12/15 00:45:39;;;;;;;43.90;29.17;;;;;;;8.59;95.01;102732.41;5034715;28;20054;-71
2021/12/15 00:48:05;;;;;;;46.03;30.15;;;;;;;8.56;95.22;102730.03;5035537;28;20041;-71
2021/12/15 00:50:33;;;;;;;46.85;31.15;;;;;;;8.58;94.89;102729.88;5035578;28;20073;-71
2021/12/15 00:52:59;;;;;;;47.63;30.55;;;;;;;8.55;95.05;102728.34;5035076;28;20048;-71
2021/12/15 00:55:26;;;;;;;47.60;31.88;;;;;;;8.59;95.22;102735.09;5034046;28;20033;-71
2021/12/15 00:57:52;;;;;;;46.42;29.80;;;;;;;8.58;95.42;102725.31;5015613;28;20034;-71
2021/12/15 01:00:31;;;;;;;44.60;30.30;;;;;;;8.59;94.96;102729.69;5015488;28;20036;-71
2021/12/15 01:02:57;;;;;;;45.05;29.15;;;;;;;8.56;95.11;102724.63;5014878;28;20030;-71
2021/12/15 01:05:27;;;;;;;43.83;29.35;;;;;;;8.58;95.66;102727.16;5015552;28;20041;-71
2021/12/15 01:07:53;;;;;;;45.30;29.83;;;;;;;8.58;95.29;102730.69;5015365;28;20029;-71
2021/12/15 01:10:27;;;;;;;44.22;29.73;;;;;;;8.57;95.49;102734.41;5015505;28;20482;-71
2021/12/15 01:20:59;;;;;;;44.50;29.58;;;;;;;8.55;94.41;102739.13;5016058;28;20404;-71
2021/12/15 01:23:27;;;;;;;44.67;28.58;;;;;;;8.57;94.76;102747.88;5014936;28;20026;-71
2021/12/15 01:25:56;;;;;;;44.40;28.85;;;;;;;8.58;94.90;102738.78;5014893;28;20470;-71
2021/12/15 01:28:22;;;;;;;47.60;30.65;;;;;;;8.58;95.47;102744.19;5014353;28;20069;-71
2021/12/15 01:30:51;;;;;;;50.97;30.55;;;;;;;8.57;94.91;102742.50;5015070;28;20030;-71
2021/12/15 01:33:17;;;;;;;46.90;29.67;;;;;;;8.54;95.01;102737.44;4997195;28;20025;-71
2021/12/15 01:35:47;;;;;;;49.40;30.50;;;;;;;8.55;94.71;102739.13;5014928;28;20397;-71
2021/12/15 01:38:13;;;;;;;49.00;31.17;;;;;;;8.57;94.69;102738.97;5014715;28;20026;-71
2021/12/15 01:40:42;;;;;;;48.22;30.40;;;;;;;8.55;94.45;102741.00;5015019;28;20033;-71
2021/12/15 01:43:47;;;;;;;48.85;30.55;;;;;;;8.54;95.12;102742.00;4997116;28;20037;-71
2021/12/15 01:49:06;;;;;;;50.05;30.70;;;;;;;8.55;95.02;102747.22;5034167;28;20048;-71
2021/12/15 01:51:32;;;;;;;47.03;30.50;;;;;;;8.53;94.99;102746.56;5034499;28;20049;-71
2021/12/15 01:53:57;;;;;;;49.88;30.65;;;;;;;8.53;95.00;102741.16;5034169;28;20025;-71
2021/12/15 01:56:23;;;;;;;50.00;30.20;;;;;;;8.55;95.14;102743.69;5034353;28;20026;-71
2021/12/15 01:58:49;;;;;;;48.50;29.50;;;;;;;8.54;94.98;102747.38;5034336;28;20508;-71
2021/12/15 02:01:14;;;;;;;50.97;30.33;;;;;;;8.54;95.47;102748.22;5024898;28;20038;-71
2021/12/15 02:03:41;;;;;;;49.20;31.02;;;;;;;8.54;95.14;102747.38;5014465;28;20029;-71
2021/12/15 02:06:08;;;;;;;50.30;30.20;;;;;;;8.54;95.39;102747.38;5013822;28;20033;-71
2021/12/15 02:08:34;;;;;;;52.47;31.65;;;;;;;8.56;95.37;102761.56;5014345;28;20026;-71
2021/12/15 02:11:00;;;;;;;52.08;31.48;;;;;;;8.56;95.18;102762.41;5015088;28;20420;-71
2021/12/15 02:13:25;;;;;;;50.67;30.67;;;;;;;8.58;94.58;102760.38;4996354;28;20076;-71
2021/12/15 02:15:57;;;;;;;50.42;30.13;;;;;;;8.56;95.15;102762.41;4997541;28;20034;-71
2021/12/15 02:18:27;;;;;;;50.53;30.08;;;;;;;8.52;95.33;102761.03;5014081;28;20041;-71
2021/12/15 02:20:59;;;;;;;52.88;31.33;;;;;;;8.56;95.41;102761.56;5014082;28;20462;-71
2021/12/15 02:23:37;;;;;;;52.45;30.50;;;;;;;8.56;95.39;102767.81;5013648;28;20474;-73
2021/12/15 02:26:08;;;;;;;52.90;31.10;;;;;;;8.53;95.45;102765.44;5013738;28;20481;-71
2021/12/15 02:28:34;;;;;;;51.97;30.30;;;;;;;8.54;95.75;102763.59;5014024;28;20089;-71
2021/12/15 02:31:11;;;;;;;52.42;31.08;;;;;;;8.52;95.24;102763.75;5013662;28;20030;-71
2021/12/15 02:33:53;;;;;;;53.05;30.38;;;;;;;8.54;94.93;102764.41;5027321;28;20037;-71
2021/12/15 02:39:07;;;;;;;53.95;31.05;;;;;;;8.55;95.11;102766.13;5033310;28;20043;-71
2021/12/15 02:41:33;;;;;;;54.58;31.67;;;;;;;8.56;95.41;102764.25;5033234;28;20448;-71
2021/12/15 02:44:05;;;;;;;52.58;30.70;;;;;;;8.54;94.87;102758.19;5015603;28;20029;-71
2021/12/15 02:46:32;;;;;;;51.05;30.52;;;;;;;8.56;95.72;102757.03;5032977;28;20465;-71
2021/12/15 02:48:58;;;;;;;50.53;29.67;;;;;;;8.53;95.05;102757.34;5014344;28;20037;-71
2021/12/15 02:51:24;;;;;;;50.38;30.88;;;;;;;8.53;95.66;102760.06;5013058;28;20072;-71
2021/12/15 02:53:52;;;;;;;48.83;29.23;;;;;;;8.54;95.77;102758.19;5013137;28;20030;-71
2021/12/15 02:56:17;;;;;;;49.60;30.63;;;;;;;8.54;96.00;102764.41;5013507;28;20425;-71
2021/12/15 02:58:51;;;;;;;51.00;30.70;;;;;;;8.56;95.36;102765.13;4995815;28;20030;-71
2021/12/15 03:01:26;;;;;;;55.88;30.42;;;;;;;8.56;95.09;102762.41;5010997;28;20118;-71
2021/12/15 03:06:48;;;;;;;48.70;28.90;;;;;;;8.58;95.45;102763.09;5030738;28;20044;-72
2021/12/15 03:17:13;;;;;;;49.17;29.27;;;;;;;8.58;95.62;102760.38;5032485;28;20487;-75
2021/12/15 03:19:39;;;;;;;50.42;29.73;;;;;;;8.61;95.18;102751.13;5029562;28;20029;-72
2021/12/15 03:22:04;;;;;;;50.60;29.98;;;;;;;8.59;95.40;102751.28;5003886;28;20028;-71
2021/12/15 03:24:30;;;;;;;48.97;29.10;;;;;;;8.59;95.37;102758.53;5032852;28;20626;-72
2021/12/15 03:27:03;;;;;;;50.97;30.33;;;;;;;8.56;95.76;102746.22;5032782;28;20040;-72
2021/12/15 03:35:18;;;;;;;46.90;28.83;;;;;;;8.61;95.38;102757.34;5032690;28;20408;-71
2021/12/15 03:37:50;;;;;;;51.88;29.45;;;;;;;8.61;95.60;102760.06;5032655;28;20037;-72
2021/12/15 03:40:23;;;;;;;47.70;28.88;;;;;;;8.63;95.61;102757.19;5032637;28;20111;-72
2021/12/15 03:42:51;;;;;;;48.50;29.17;;;;;;;8.63;95.91;102757.19;5032537;28;20087;-72
2021/12/15 03:45:30;;;;;;;48.17;28.35;;;;;;;8.63;95.02;102758.03;5032016;28;20060;-72
2021/12/15 03:47:58;;;;;;;45.90;28.15;;;;;;;8.64;95.30;102758.88;5005416;28;20107;-72
2021/12/15 03:50:25;;;;;;;51.08;29.25;;;;;;;8.64;95.22;102762.44;5014183;28;20592;-71
2021/12/15 03:52:51;;;;;;;44.72;26.55;;;;;;;8.63;95.53;102763.41;5019221;28;20025;-71
2021/12/15 03:55:24;;;;;;;46.35;27.73;;;;;;;8.63;95.48;102767.97;5019065;28;20033;-71
2021/12/15 03:57:50;;;;;;;44.47;26.80;;;;;;;8.65;95.43;102768.66;5018895;28;20030;-71
2021/12/15 04:00:17;;;;;;;43.58;27.10;;;;;;;8.63;95.64;102758.03;5018882;28;20080;-71
2021/12/15 04:02:43;;;;;;;42.80;25.98;;;;;;;8.68;95.10;102777.28;5026197;28;20072;-72
2021/12/15 04:05:11;;;;;;;40.20;26.02;;;;;;;8.64;95.06;102778.63;5038652;28;20288;-72
2021/12/15 04:07:37;;;;;;;45.33;26.50;;;;;;;8.68;95.66;102782.69;5039150;28;20048;-71
2021/12/15 04:10:06;;;;;;;45.78;26.63;;;;;;;8.69;95.53;102778.94;5038933;28;20354;-72
2021/12/15 04:12:32;;;;;;;41.83;26.02;;;;;;;8.68;95.65;102776.41;5038939;28;20025;-71
2021/12/15 04:15:18;;;;;;;45.28;27.05;;;;;;;8.67;95.21;102774.75;5038843;28;20033;-70
2021/12/15 04:17:42;;;;;;;44.90;26.25;;;;;;;8.69;94.89;102781.66;5026525;28;20045;-70
2021/12/15 04:20:11;;;;;;;41.85;26.45;;;;;;;8.67;95.21;102780.16;5018797;28;20096;-71
2021/12/15 04:22:38;;;;;;;42.15;26.75;;;;;;;8.65;95.09;102772.22;5018931;28;20037;-70
2021/12/15 04:25:10;;;;;;;40.42;24.85;;;;;;;8.66;95.04;102778.44;5019097;28;20484;-71
2021/12/15 04:27:36;;;;;;;40.80;26.13;;;;;;;8.64;94.78;102780.47;5018902;28;20072;-71
2021/12/15 04:30:03;;;;;;;43.65;26.13;;;;;;;8.66;95.26;102795.47;5018944;28;20053;-71
2021/12/15 04:32:33;;;;;;;39.92;24.30;;;;;;;8.65;95.11;102788.41;5030437;28;20036;-71
2021/12/15 04:34:59;;;;;;;43.58;26.35;;;;;;;8.64;94.96;102792.09;5038499;28;20047;-71
2021/12/15 04:37:24;;;;;;;40.72;25.48;;;;;;;8.66;95.07;102792.78;5038450;28;20109;-71
2021/12/15 04:39:50;;;;;;;41.70;25.48;;;;;;;8.64;95.91;102786.72;5038633;28;20037;-71
2021/12/15 04:42:18;;;;;;;39.20;25.67;;;;;;;8.65;95.21;102796.50;5038351;28;20035;-71
2021/12/15 04:44:44;;;;;;;43.20;26.05;;;;;;;8.63;94.86;102790.41;5020822;28;20033;-71
2021/12/15 04:47:11;;;;;;;42.15;25.98;;;;;;;8.66;95.19;102797.34;5026350;28;20544;-71
2021/12/15 04:49:41;;;;;;;40.03;24.60;;;;;;;8.64;95.32;102794.81;5000738;28;20026;-71
2021/12/15 04:52:08;;;;;;;43.13;26.15;;;;;;;8.64;95.80;102800.22;5018630;28;20026;-71
2021/12/15 04:54:33;;;;;;;41.42;24.40;;;;;;;8.64;95.88;102797.50;5018949;28;20458;-71
2021/12/15 04:57:01;;;;;;;41.45;24.27;;;;;;;8.64;95.51;102797.50;5018706;28;20041;-71
2021/12/15 04:59:28;;;;;;;40.13;24.00;;;;;;;8.62;94.82;102795.97;5018611;28;20056;-71
2021/12/15 05:01:54;;;;;;;39.38;24.80;;;;;;;8.62;95.83;102804.94;5025461;28;20053;-71
2021/12/15 05:04:20;;;;;;;42.00;25.58;;;;;;;8.61;95.33;102803.22;5016926;28;20124;-71
2021/12/15 05:06:45;;;;;;;43.35;25.50;;;;;;;8.66;94.93;102800.88;5035310;28;20057;-71
2021/12/15 05:09:11;;;;;;;39.63;25.30;;;;;;;8.60;95.39;102806.09;5035040;28;20029;-71
2021/12/15 05:11:37;;;;;;;40.25;25.20;;;;;;;8.61;95.20;102805.94;5035257;28;20384;-71
2021/12/15 05:14:03;;;;;;;41.70;25.02;;;;;;;8.61;95.48;102805.09;5035222;28;20033;-71
2021/12/15 05:16:29;;;;;;;39.22;23.60;;;;;;;8.58;95.06;102803.56;5024839;28;20050;-71
2021/12/15 05:18:54;;;;;;;40.97;24.92;;;;;;;8.57;95.65;102806.44;5015324;28;20092;-71
2021/12/15 05:21:22;;;;;;;43.70;24.67;;;;;;;8.56;95.40;102810.13;5015386;28;20040;-71
2021/12/15 05:23:53;;;;;;;41.10;24.75;;;;;;;8.54;95.20;102807.59;5015272;28;20113;-71
2021/12/15 05:26:19;;;;;;;38.13;23.90;;;;;;;8.56;94.70;102812.81;5014823;28;20041;-71
2021/12/15 05:28:44;;;;;;;42.53;24.42;;;;;;;8.56;96.13;102805.59;5014801;28;20030;-71
2021/12/15 05:31:09;;;;;;;39.05;24.00;;;;;;;8.61;95.04;102810.50;5014845;28;20057;-71
2021/12/15 05:33:35;;;;;;;39.10;23.60;;;;;;;8.57;95.25;102815.34;5027471;28;20033;-71
2021/12/15 05:36:00;;;;;;;38.63;22.80;;;;;;;8.58;95.86;102814.34;5034829;28;20087;-71
2021/12/15 05:38:26;;;;;;;41.88;23.85;;;;;;;8.57;95.99;102817.22;5034214;28;20063;-71
2021/12/15 05:40:52;;;;;;;43.13;24.85;;;;;;;8.57;95.63;102817.22;5016886;28;20033;-71
2021/12/15 05:43:18;;;;;;;41.88;24.70;;;;;;;8.57;95.69;102815.34;5034123;28;20057;-71
2021/12/15 05:45:43;;;;;;;42.80;24.55;;;;;;;8.54;95.84;102813.00;5034380;28;20076;-71
2021/12/15 05:48:11;;;;;;;42.65;24.42;;;;;;;8.58;95.19;102827.84;5022699;28;20045;-71
2021/12/15 05:50:38;;;;;;;44.35;26.25;;;;;;;8.57;95.59;102817.22;5014614;28;20038;-71
2021/12/15 05:53:04;;;;;;;39.83;24.02;;;;;;;8.57;96.11;102818.06;5014570;28;20080;-71
2021/12/15 05:55:29;;;;;;;42.28;25.00;;;;;;;8.57;95.74;102823.44;5014597;28;20492;-71
2021/12/15 05:57:55;;;;;;;41.83;24.80;;;;;;;8.55;95.50;102820.09;4996887;28;20058;-71
2021/12/15 06:00:25;;;;;;;43.83;24.88;;;;;;;8.52;95.35;102817.72;5014219;28;20116;-71
2021/12/15 06:02:51;;;;;;;43.33;26.08;;;;;;;8.56;96.29;102821.78;5023921;28;20068;-71
2021/12/15 06:05:17;;;;;;;43.15;26.02;;;;;;;8.55;95.95;102830.03;5033903;28;20034;-71
2021/12/15 06:07:43;;;;;;;46.28;25.17;;;;;;;8.56;96.16;102819.09;5034168;28;20056;-71
2021/12/15 06:10:11;;;;;;;49.00;27.08;;;;;;;8.55;96.11;102821.94;5034163;28;20030;-71
2021/12/15 06:12:37;;;;;;;47.30;27.58;;;;;;;8.51;95.81;102822.28;5034033;28;20473;-71
2021/12/15 06:15:04;;;;;;;44.63;26.67;;;;;;;8.52;95.75;102820.41;5033474;28;20026;-71
2021/12/15 06:17:29;;;;;;;47.10;26.42;;;;;;;8.52;95.64;102823.09;5023590;28;20030;-71
2021/12/15 06:19:56;;;;;;;45.90;25.88;;;;;;;8.49;95.85;102826.13;5014148;28;20034;-71
2021/12/15 06:22:26;;;;;;;44.33;26.60;;;;;;;8.54;95.88;102828.34;5013847;28;20104;-72
2021/12/15 06:24:56;;;;;;;49.92;28.40;;;;;;;8.54;95.79;102834.56;5013687;28;20444;-71
2021/12/15 06:27:28;;;;;;;50.13;26.83;;;;;;;8.50;95.79;102838.63;5013748;28;20070;-71
2021/12/15 06:29:53;;;;;;;;;;;;;;;8.63;95.59;102835.47;5014364;28;20036;-71
2021/12/15 06:32:21;;;;;;;50.42;27.63;;;;;;;8.52;96.10;102836.59;5023932;28;19912;-71
2021/12/15 06:34:46;;;;;;;49.30;28.17;;;;;;;8.54;96.46;102842.66;5033595;28;20074;-71
2021/12/15 06:37:12;;;;;;;47.88;27.05;;;;;;;8.55;96.57;102841.66;5015799;28;20028;-71
2021/12/15 06:39:37;;;;;;;50.38;27.05;;;;;;;8.55;96.07;102841.66;5033368;28;20476;-71
2021/12/15 06:42:04;;;;;;;49.60;27.83;;;;;;;8.57;96.12;102844.22;5033725;28;20033;-71
2021/12/15 06:44:29;;;;;;;50.25;27.50;;;;;;;8.56;96.26;102837.97;5033462;28;20057;-71
2021/12/15 07:00:04;;;;;;;55.22;29.15;;;;;;;8.64;96.40;102856.06;5013381;28;20037;-71
2021/12/15 07:02:31;;;;;;;52.15;28.77;;;;;;;8.61;96.21;102846.41;5026476;28;20116;-71
2021/12/15 07:04:57;;;;;;;50.13;29.33;;;;;;;8.62;95.82;102856.22;5033072;28;20465;-71
2021/12/15 07:07:22;;;;;;;52.35;29.00;;;;;;;8.60;96.68;102854.69;5032589;28;20080;-71
2021/12/15 07:09:48;;;;;;;56.08;29.75;;;;;;;8.61;95.71;102857.22;5033042;28;20034;-71
2021/12/15 07:12:13;;;;;;;56.15;30.10;;;;;;;8.58;96.58;102857.53;5032945;28;20132;-72
2021/12/15 07:14:39;;;;;;;55.20;29.08;;;;;;;8.63;96.24;102865.97;5032727;28;20131;-71
2021/12/15 07:17:09;;;;;;;52.70;28.05;;;;;;;8.59;96.34;102867.34;5032688;28;20393;-71
2021/12/15 07:19:52;;;;;;;56.47;29.63;;;;;;;8.61;96.10;102870.72;5032712;28;20476;-71
2021/12/15 07:22:31;;;;;;;53.63;28.33;;;;;;;8.61;96.42;102865.31;5015480;28;20038;-72
2021/12/15 07:24:58;;;;;;;54.75;29.05;;;;;;;8.58;96.26;102872.91;5012549;28;20026;-71
2021/12/15 07:27:24;;;;;;;54.65;29.00;;;;;;;8.60;96.25;102876.25;5012329;28;20481;-71
2021/12/15 07:29:49;;;;;;;54.88;29.23;;;;;;;8.59;97.08;102872.72;5012970;28;20040;-71
2021/12/15 07:32:15;;;;;;;57.17;29.70;;;;;;;8.59;96.15;102875.44;5012640;28;20034;-72
2021/12/15 07:34:40;;;;;;;57.80;29.88;;;;;;;8.61;96.52;102878.81;5012802;28;20029;-71
2021/12/15 07:37:06;;;;;;;53.90;29.95;;;;;;;8.60;96.42;102876.25;5013952;28;20029;-72
2021/12/15 07:39:31;;;;;;;55.55;29.75;;;;;;;8.59;96.87;102879.97;4995024;28;20080;-71
2021/12/15 07:42:09;;;;;;;57.15;31.00;;;;;;;8.61;96.62;102883.38;5012477;28;20037;-71
2021/12/15 07:44:35;;;;;;;58.47;30.88;;;;;;;8.59;96.69;102878.13;5012538;28;20450;-71
2021/12/15 07:47:00;;;;;;;59.75;31.58;;;;;;;8.58;96.80;102881.81;5013819;28;20081;-72
2021/12/15 07:49:27;;;;;;;56.80;31.23;;;;;;;8.53;96.90;102876.09;5012480;28;20378;-71
2021/12/15 07:52:00;;;;;;;62.17;32.13;;;;;;;8.56;97.22;102881.16;5012687;28;20037;-71
2021/12/15 07:54:30;;;;;;;60.90;30.45;;;;;;;8.58;96.99;102879.13;5012473;28;20033;-71
2021/12/15 07:56:56;;;;;;;60.60;31.50;;;;;;;8.55;96.35;102879.44;5012644;28;20026;-71
2021/12/15 07:59:21;;;;;;;64.10;32.58;;;;;;;8.58;97.26;102883.69;5012459;28;20041;-72
2021/12/15 08:01:46;;;;;;;59.72;31.45;;;;;;;8.57;96.72;102893.63;4992679;28;20034;-72
2021/12/15 08:04:12;;;;;;;60.70;32.65;;;;;;;8.56;96.66;102883.84;5012328;28;20113;-73
2021/12/15 08:06:37;;;;;;;62.53;32.47;;;;;;;8.59;96.73;102879.97;5011971;28;20030;-74
2021/12/15 08:09:04;;;;;;;57.63;31.52;;;;;;;8.59;97.27;102886.22;5012523;28;20026;-73
2021/12/15 08:11:30;;;;;;;61.28;32.65;;;;;;;8.62;96.59;102894.00;5022385;28;20477;-73
2021/12/15 08:13:57;;;;;;;63.28;32.70;;;;;;;8.62;96.60;102896.69;5032297;28;20086;-73
2021/12/15 08:16:23;;;;;;;63.42;33.03;;;;;;;8.61;97.26;102888.75;5031955;28;20030;-73
2021/12/15 08:18:48;;;;;;;65.35;32.63;;;;;;;8.64;97.07;102899.22;5014577;28;20022;-73
2021/12/15 08:21:14;;;;;;;63.60;33.38;;;;;;;8.63;96.75;102897.53;5030903;28;20584;-73
2021/12/15 08:23:39;;;;;;;59.67;32.13;;;;;;;8.61;97.28;102900.38;5031673;28;20041;-73
2021/12/15 08:26:05;;;;;;;64.65;32.17;;;;;;;8.63;96.73;102906.47;5031914;28;20030;-72
2021/12/15 08:28:30;;;;;;;58.63;32.53;;;;;;;8.62;96.58;102895.84;5031996;28;20025;-73
2021/12/15 08:30:56;;;;;;;58.20;32.17;;;;;;;8.63;96.89;102898.38;5014392;28;20025;-72
2021/12/15 08:33:23;;;;;;;63.75;32.58;;;;;;;8.67;96.36;102899.75;5014189;28;20036;-72
2021/12/15 08:35:53;;;;;;;61.22;32.67;;;;;;;8.64;96.60;102899.22;5030057;28;20108;-72
2021/12/15 08:38:20;;;;;;;59.88;32.35;;;;;;;8.67;96.53;102904.31;5035794;28;20397;-72
2021/12/15 08:40:47;;;;;;;65.95;33.30;;;;;;;8.67;96.67;102910.53;5017724;28;20084;-72
2021/12/15 08:43:13;;;;;;;61.25;33.42;;;;;;;8.69;96.37;102903.13;5034466;28;20033;-72
2021/12/15 08:45:43;;;;;;;59.13;32.50;;;;;;;8.68;96.68;102901.44;5035103;28;20072;-73
2021/12/15 08:48:09;;;;;;;65.10;34.55;;;;;;;8.68;96.32;102903.28;5035679;28;20034;-72
2021/12/15 08:50:38;;;;;;;59.92;33.60;;;;;;;8.72;96.86;102906.53;5030514;28;20461;-72
2021/12/15 08:53:05;;;;;;;61.58;34.30;;;;;;;8.69;97.03;102908.50;5015605;28;20037;-72
2021/12/15 08:55:31;;;;;;;64.18;34.47;;;;;;;8.72;96.63;102903.81;5015536;28;20690;-72
2021/12/15 08:57:59;;;;;;;65.20;33.80;;;;;;;8.73;96.09;102902.81;5015725;28;20068;-72
2021/12/15 09:00:25;;;;;;;61.35;34.30;;;;;;;8.75;96.43;102909.72;5014654;28;20083;-72
2021/12/15 09:02:52;;;;;;;62.22;33.83;;;;;;;8.73;96.32;102908.22;5015087;28;20086;-72
2021/12/15 09:05:20;;;;;;;62.60;34.08;;;;;;;8.73;96.56;102914.44;5035305;28;20029;-72
2021/12/15 09:07:48;;;;;;;61.58;33.60;;;;;;;8.75;96.41;102917.00;5035095;28;20033;-72
2021/12/15 09:10:13;;;;;;;60.90;33.05;;;;;;;8.75;96.60;102912.44;5035240;28;20249;-72
2021/12/15 09:12:39;;;;;;;57.40;31.85;;;;;;;8.79;96.11;102912.97;5017253;28;20120;-72
2021/12/15 09:15:06;;;;;;;64.53;33.65;;;;;;;8.77;96.64;102921.22;5035226;28;20029;-72
2021/12/15 09:17:32;;;;;;;63.00;33.50;;;;;;;8.76;96.34;102916.00;5016817;28;20384;-72
2021/12/15 09:19:57;;;;;;;60.70;32.42;;;;;;;8.79;96.56;102918.38;5033734;28;20025;-72
2021/12/15 09:22:22;;;;;;;62.03;34.53;;;;;;;8.81;96.73;102925.28;5034744;28;20517;-73
2021/12/15 09:24:48;;;;;;;58.33;32.78;;;;;;;8.83;96.92;102923.28;5034711;28;20052;-73
2021/12/15 09:27:13;;;;;;;57.85;33.33;;;;;;;8.87;96.16;102921.09;5001653;28;20034;-73
2021/12/15 09:29:39;;;;;;;59.42;33.15;;;;;;;8.87;96.46;102934.59;5014614;28;20029;-72
2021/12/15 09:32:05;;;;;;;61.80;34.40;;;;;;;8.90;96.93;102942.34;5014817;28;20030;-73
2021/12/15 09:34:30;;;;;;;56.58;32.75;;;;;;;8.90;96.45;102941.53;5015393;28;20376;-76
2021/12/15 09:36:57;;;;;;;58.38;33.70;;;;;;;8.95;96.42;102940.03;5028053;28;20485;-76
2021/12/15 09:39:24;;;;;;;58.78;33.33;;;;;;;8.97;96.43;102943.41;5034553;28;20034;-76
2021/12/15 09:41:50;;;;;;;60.88;35.38;;;;;;;8.97;96.53;102948.81;5020796;28;20117;-74
2021/12/15 09:44:19;;;;;;;55.15;33.20;;;;;;;8.98;96.14;102955.03;5034306;28;20069;-74
2021/12/15 10:01:53;;;;;;;59.55;34.28;;;;;;;9.11;96.12;102949.19;5033794;28;20106;-76
2021/12/15 10:03:13;;;;;;;55.50;33.53;;;;;;;9.12;96.09;102946.34;5033398;28;20052;-75
2021/12/15 10:19:51;;;;;;;54.50;33.50;;;;;;;9.25;95.70;102951.25;5013887;28;20468;-75
2021/12/15 10:22:31;;;;;;;56.60;34.60;;;;;;;9.27;95.56;102954.66;5014160;28;20469;-74
2021/12/15 10:25:20;;;;;;;54.95;33.42;;;;;;;9.29;95.98;102949.91;5013990;28;20033;-74
2021/12/15 10:28:07;;;;;;;53.33;33.83;;;;;;;9.36;95.17;102948.25;5011546;28;20037;-75
2021/12/15 10:30:35;;;;;;;55.50;33.53;;;;;;;9.36;94.98;102959.06;5029829;28;20129;-74
2021/12/15 10:33:32;;;;;;;52.55;33.80;;;;;;;9.40;95.04;102949.63;5004933;28;20470;-73
2021/12/15 10:36:06;;;;;;;56.05;33.72;;;;;;;9.43;95.30;102951.13;5032861;28;20030;-73
2021/12/15 10:38:40;;;;;;;54.83;34.25;;;;;;;9.44;94.92;102950.13;5032683;28;20025;-73
2021/12/15 10:41:24;;;;;;;54.13;33.90;;;;;;;9.48;95.03;102947.94;5017171;28;20033;-76
2021/12/15 10:43:56;;;;;;;55.78;34.72;;;;;;;9.49;95.01;102947.75;5031678;28;20037;-72
2021/12/15 10:46:51;;;;;;;56.95;34.38;;;;;;;9.50;95.32;102949.47;5013853;28;20093;-76
2021/12/15 10:49:20;;;;;;;53.58;32.30;;;;;;;9.48;95.06;102953.34;5019066;28;20046;-76
2021/12/15 10:51:54;;;;;;;52.83;34.00;;;;;;;9.50;95.14;102952.16;5033116;28;20033;-73
2021/12/15 10:54:27;;;;;;;53.17;32.92;;;;;;;9.49;95.05;102953.16;5033172;28;20037;-72
2021/12/15 10:56:59;;;;;;;52.90;34.58;;;;;;;9.50;94.92;102951.34;5032599;28;20026;-75
2021/12/15 10:59:28;;;;;;;54.83;34.47;;;;;;;9.55;95.40;102957.06;4995923;28;20037;-76
2021/12/15 11:01:54;;;;;;;53.97;33.50;;;;;;;9.58;94.95;102964.84;5010450;28;20034;-73
2021/12/15 11:04:22;;;;;;;55.22;35.17;;;;;;;9.59;94.52;102958.44;5013267;28;20099;-75
2021/12/15 11:07:04;;;;;;;55.55;34.90;;;;;;;9.60;94.49;102960.09;4995100;28;20160;-76
2021/12/15 11:09:39;;;;;;;55.38;34.03;;;;;;;9.60;94.48;102954.69;5013014;28;20033;-76
2021/12/15 11:12:21;;;;;;;52.10;34.03;;;;;;;9.62;94.79;102950.00;5014736;28;20029;-71
2021/12/15 11:14:50;;;;;;;56.97;34.10;;;;;;;9.62;94.79;102949.13;5032328;28;20405;-73
2021/12/15 11:17:46;;;;;;;54.72;34.40;;;;;;;9.65;94.76;102949.66;5015015;28;20369;-73
2021/12/15 11:20:16;;;;;;;52.88;33.63;;;;;;;9.65;93.99;102948.81;5028647;28;20047;-78
2021/12/15 11:22:49;;;;;;;51.40;34.00;;;;;;;9.64;94.24;102945.25;5031774;28;20026;-76
2021/12/15 11:25:31;;;;;;;47.97;32.80;;;;;;;9.67;94.40;102939.50;5032130;28;20516;-73
2021/12/15 11:28:05;;;;;;;49.60;33.03;;;;;;;9.64;94.53;102945.25;5032568;28;20507;-71
2021/12/15 11:30:36;;;;;;;49.95;34.40;;;;;;;9.68;94.42;102951.19;5014600;28;20029;-73
2021/12/15 11:33:06;;;;;;;52.20;33.70;;;;;;;9.68;94.21;102949.31;5012233;28;20025;-74
2021/12/15 11:35:38;;;;;;;49.20;33.37;;;;;;;9.68;94.50;102935.81;5014442;28;20021;-73
2021/12/15 11:38:16;;;;;;;;;;;;;;;9.83;94.27;102954.03;5014859;28;20025;-77
2021/12/15 11:40:46;;;;;;;50.63;32.22;;;;;;;9.71;93.63;102940.88;5014289;28;19909;-76
2021/12/15 11:43:30;;;;;;;49.95;32.53;;;;;;;9.76;93.38;102938.50;5014846;28;20022;-76
2021/12/15 11:45:57;;;;;;;47.92;33.13;;;;;;;9.74;93.35;102937.84;5014000;28;20045;-77
2021/12/15 11:48:27;;;;;;;50.75;32.90;;;;;;;9.77;93.34;102947.47;5012145;28;20025;-71
2021/12/15 11:50:57;;;;;;;48.00;32.13;;;;;;;9.74;93.33;102940.53;5031958;28;20021;-73
2021/12/15 11:53:46;;;;;;;47.58;32.10;;;;;;;9.80;93.75;102939.03;5032451;28;20390;-76
2021/12/15 11:56:30;;;;;;;46.97;32.05;;;;;;;9.85;93.70;102949.34;5014611;28;20112;-74
2021/12/15 11:59:14;;;;;;;48.28;31.15;;;;;;;9.85;93.08;102941.22;5031855;28;20021;-74
2021/12/15 12:01:47;;;;;;;43.83;30.65;;;;;;;9.83;92.65;102943.22;5029530;28;20109;-73
2021/12/15 12:04:12;;;;;;;43.05;30.45;;;;;;;9.81;92.90;102945.28;5032107;28;20488;-75
2021/12/15 12:06:38;;;;;;;45.80;30.33;;;;;;;9.79;93.30;102936.50;5032044;28;20034;-74
2021/12/15 12:09:03;;;;;;;41.92;29.38;;;;;;;9.82;93.10;102930.75;5032608;28;20084;-75
2021/12/15 12:11:29;;;;;;;46.13;29.67;;;;;;;9.84;92.83;102936.81;5015173;28;20044;-73
2021/12/15 12:13:59;;;;;;;45.15;30.17;;;;;;;9.83;93.24;102932.41;5018177;28;20040;-74
2021/12/15 12:16:25;;;;;;;42.92;29.45;;;;;;;9.84;92.87;102917.88;5018550;28;20045;-71
2021/12/15 12:18:52;;;;;;;41.88;30.45;;;;;;;9.88;92.38;102930.06;5035879;28;20032;-72
2021/12/15 12:21:17;;;;;;;41.95;29.38;;;;;;;9.88;92.50;102927.34;5018433;28;20037;-71
2021/12/15 12:23:45;;;;;;;44.03;29.35;;;;;;;9.89;92.61;102924.50;5035579;28;20033;-70
2021/12/15 12:26:11;;;;;;;40.90;29.23;;;;;;;9.89;92.59;102927.19;5018219;28;20060;-72
2021/12/15 12:28:42;;;;;;;39.58;29.52;;;;;;;9.91;92.38;102929.72;5035903;28;20061;-73
2021/12/15 12:31:16;;;;;;;42.40;28.75;;;;;;;9.91;92.12;102927.03;5036253;28;20026;-73
2021/12/15 12:33:42;;;;;;;40.53;28.90;;;;;;;9.94;92.61;102932.09;5035657;28;20496;-71
2021/12/15 12:36:19;;;;;;;40.97;28.35;;;;;;;9.97;92.21;102923.63;5035845;28;20037;-72